PWSweather.com
Personal Weather Stations
Station Observations
GIRWX1
Presovsky Kraj, GiraltovceSK

Presovsky KrajGiraltovceSK

Lat: 49.118, Lon: 21.52

Elevation: 630

Station Type: wh1080

http://www.meteogiraltovce.wz.cz/

High Low Average
Temperature 62.4°F16.9°C 32.7°F0.4°C 46.8°F8.2°C
Dew Point 47.3°F8.5°C 30.1°F-1.1°C 38.9°F3.8°C
Winds 14.1 mph 22.7 kmh Calm Calm 3.0 mph ESE4.8 kmh ESE
Wind Gusts 22.1 mph35.6 kmh -- 5.0 mph8.0 kmh
Humidity 99% 43% 76%
Pressure 30.35 in1027.8 mb 30.27 in1025.1 mb -
Precipitation 0.00 in0.0 mm - -
Hour Temp Dew Point Humidity Winds Wind Gusts Pressure Precip Precip Rate Daily Precip Total
12:00 AM 39.5°F4.2°C 36.3°F2.4°C 88% 2.1 mph NE3.4 kmh NE 3.8 mph6.1 kmh 30.32 in1026.8 mb 0.00 in0.0 mm 0.00 in0.0 mm 0.00 in0.0 mm
12:05 AM 39.3°F4.1°C 35.7°F2.1°C 87% 2.0 mph NE3.2 kmh NE 3.8 mph6.1 kmh 30.32 in1026.8 mb 0.00 in0.0 mm 0.00 in0.0 mm 0.00 in0.0 mm
12:10 AM 39.2°F4.0°C 35.6°F2.0°C 87% 0.5 mph SSE0.8 kmh SSE 1.6 mph2.6 kmh 30.32 in1026.8 mb 0.00 in0.0 mm 0.00 in0.0 mm 0.00 in0.0 mm
12:15 AM 39.0°F3.9°C 35.4°F1.9°C 87% 0.1 mph 0.2 kmh 0.7 mph1.1 kmh 30.32 in1026.8 mb 0.00 in0.0 mm 0.00 in0.0 mm 0.00 in0.0 mm
12:20 AM 38.8°F3.8°C 35.2°F1.8°C 87% 0.6 mph NE1.0 kmh NE 3.1 mph5.0 kmh 30.32 in1026.8 mb 0.00 in0.0 mm 0.00 in0.0 mm 0.00 in0.0 mm
12:25 AM 38.6°F3.7°C 35.1°F1.7°C 87% 1.3 mph NE2.1 kmh NE 2.2 mph3.5 kmh 30.32 in1026.8 mb 0.00 in0.0 mm 0.00 in0.0 mm 0.00 in0.0 mm
12:30 AM 38.4°F3.6°C 34.9°F1.6°C 87% 1.9 mph N3.1 kmh N 3.1 mph5.0 kmh 30.32 in1026.8 mb 0.00 in0.0 mm 0.00 in0.0 mm 0.00 in0.0 mm
12:35 AM 38.3°F3.5°C 34.8°F1.6°C 87% 1.9 mph N3.1 kmh N 3.1 mph5.0 kmh 30.32 in1026.8 mb 0.00 in0.0 mm 0.00 in0.0 mm 0.00 in0.0 mm
12:40 AM 38.3°F3.5°C 35.0°F1.7°C 88% 1.3 mph N2.1 kmh N 3.1 mph5.0 kmh 30.32 in1026.8 mb 0.00 in0.0 mm 0.00 in0.0 mm 0.00 in0.0 mm
12:45 AM 38.2°F3.4°C 35.0°F1.7°C 88% 1.9 mph NE3.1 kmh NE 3.8 mph6.1 kmh 30.32 in1026.8 mb 0.00 in0.0 mm 0.00 in0.0 mm 0.00 in0.0 mm
12:50 AM 37.9°F3.3°C 34.6°F1.4°C 88% 2.7 mph NE4.3 kmh NE 3.8 mph6.1 kmh 30.33 in1027.1 mb 0.00 in0.0 mm 0.00 in0.0 mm 0.00 in0.0 mm
12:55 AM 37.6°F3.1°C 34.1°F1.2°C 87% 1.7 mph NNE2.7 kmh NNE 3.8 mph6.1 kmh 30.32 in1026.8 mb 0.00 in0.0 mm 0.00 in0.0 mm 0.00 in0.0 mm
01:00 AM 37.3°F2.9°C 33.8°F1.0°C 87% 1.3 mph NE2.1 kmh NE 2.2 mph3.5 kmh 30.33 in1027.1 mb 0.00 in0.0 mm 0.00 in0.0 mm 0.00 in0.0 mm
01:05 AM 37.0°F2.8°C 33.5°F0.8°C 87% 1.6 mph 2.6 kmh 2.2 mph3.5 kmh 30.32 in1026.8 mb 0.00 in0.0 mm 0.00 in0.0 mm 0.00 in0.0 mm
01:10 AM 36.9°F2.7°C 33.4°F0.8°C 87% 1.4 mph NNE2.3 kmh NNE 2.2 mph3.5 kmh 30.32 in1026.8 mb 0.00 in0.0 mm 0.00 in0.0 mm 0.00 in0.0 mm
01:15 AM 36.7°F2.6°C 33.2°F0.7°C 87% 1.0 mph NE1.6 kmh NE 3.1 mph5.0 kmh 30.33 in1027.1 mb 0.00 in0.0 mm 0.00 in0.0 mm 0.00 in0.0 mm
01:20 AM 36.5°F2.5°C 33.0°F0.6°C 87% 1.5 mph NE2.4 kmh NE 2.2 mph3.5 kmh 30.33 in1027.1 mb 0.00 in0.0 mm 0.00 in0.0 mm 0.00 in0.0 mm
01:25 AM 36.4°F2.4°C 32.9°F0.5°C 87% 1.8 mph NE2.9 kmh NE 3.1 mph5.0 kmh 30.33 in1027.1 mb 0.00 in0.0 mm 0.00 in0.0 mm 0.00 in0.0 mm
01:30 AM 36.3°F2.4°C 32.8°F0.4°C 87% 2.2 mph NNE3.5 kmh NNE 3.8 mph6.1 kmh 30.32 in1026.8 mb 0.00 in0.0 mm 0.00 in0.0 mm 0.00 in0.0 mm
01:35 AM 36.4°F2.4°C 33.2°F0.7°C 88% 1.4 mph N2.3 kmh N 2.2 mph3.5 kmh 30.32 in1026.8 mb 0.00 in0.0 mm 0.00 in0.0 mm 0.00 in0.0 mm
01:40 AM 36.5°F2.5°C 33.3°F0.7°C 88% 1.3 mph NNE2.1 kmh NNE 2.2 mph3.5 kmh 30.32 in1026.8 mb 0.00 in0.0 mm 0.00 in0.0 mm 0.00 in0.0 mm
01:45 AM 36.5°F2.5°C 33.5°F0.8°C 89% 1.1 mph NNE1.8 kmh NNE 2.2 mph3.5 kmh 30.32 in1026.8 mb 0.00 in0.0 mm 0.00 in0.0 mm 0.00 in0.0 mm
01:50 AM 36.4°F2.4°C 33.5°F0.8°C 89% 1.8 mph NE2.9 kmh NE 3.1 mph5.0 kmh 30.32 in1026.8 mb 0.00 in0.0 mm 0.00 in0.0 mm 0.00 in0.0 mm
01:55 AM 36.2°F2.3°C 33.2°F0.7°C 89% 2.0 mph NE3.2 kmh NE 3.1 mph5.0 kmh 30.32 in1026.8 mb 0.00 in0.0 mm 0.00 in0.0 mm 0.00 in0.0 mm
02:00 AM 35.9°F2.2°C 32.8°F0.4°C 88% 2.6 mph NE4.2 kmh NE 3.8 mph6.1 kmh 30.32 in1026.8 mb 0.00 in0.0 mm 0.00 in0.0 mm 0.00 in0.0 mm
02:05 AM 35.7°F2.1°C 32.5°F0.3°C 88% 2.5 mph NE4.0 kmh NE 3.8 mph6.1 kmh 30.32 in1026.8 mb 0.00 in0.0 mm 0.00 in0.0 mm 0.00 in0.0 mm
02:10 AM 35.4°F1.9°C 32.2°F0.1°C 88% 2.2 mph NE3.5 kmh NE 3.1 mph5.0 kmh 30.32 in1026.8 mb 0.00 in0.0 mm 0.00 in0.0 mm 0.00 in0.0 mm
02:15 AM 35.2°F1.8°C 32.0°F0.0°C 88% 2.8 mph NE4.5 kmh NE 3.8 mph6.1 kmh 30.32 in1026.8 mb 0.00 in0.0 mm 0.00 in0.0 mm 0.00 in0.0 mm
02:20 AM 34.8°F1.6°C 31.6°F-0.2°C 88% 2.2 mph NE3.5 kmh NE 3.1 mph5.0 kmh 30.33 in1027.1 mb 0.00 in0.0 mm 0.00 in0.0 mm 0.00 in0.0 mm
02:25 AM 34.6°F1.4°C 31.5°F-0.3°C 88% 2.1 mph ENE3.4 kmh ENE 3.1 mph5.0 kmh 30.33 in1027.1 mb 0.00 in0.0 mm 0.00 in0.0 mm 0.00 in0.0 mm
02:30 AM 34.5°F1.4°C 31.3°F-0.4°C 88% 1.6 mph NE2.6 kmh NE 3.1 mph5.0 kmh 30.33 in1027.1 mb 0.00 in0.0 mm 0.00 in0.0 mm 0.00 in0.0 mm
02:35 AM 34.4°F1.3°C 31.2°F-0.4°C 88% 3.2 mph NE5.1 kmh NE 4.5 mph7.2 kmh 30.33 in1027.1 mb 0.00 in0.0 mm 0.00 in0.0 mm 0.00 in0.0 mm
02:40 AM 34.2°F1.2°C 31.1°F-0.5°C 88% 2.6 mph ENE4.2 kmh ENE 4.5 mph7.2 kmh 30.33 in1027.1 mb 0.00 in0.0 mm 0.00 in0.0 mm 0.00 in0.0 mm
02:45 AM 34.2°F1.2°C 31.0°F-0.6°C 88% 1.3 mph ENE2.1 kmh ENE 3.1 mph5.0 kmh 30.33 in1027.1 mb 0.00 in0.0 mm 0.00 in0.0 mm 0.00 in0.0 mm
02:50 AM 34.0°F1.1°C 30.8°F-0.7°C 88% 0.7 mph ENE1.1 kmh ENE 2.2 mph3.5 kmh 30.33 in1027.1 mb 0.00 in0.0 mm 0.00 in0.0 mm 0.00 in0.0 mm
02:55 AM 34.0°F1.1°C 30.8°F-0.7°C 88% 2.5 mph NE4.0 kmh NE 3.8 mph6.1 kmh 30.33 in1027.1 mb 0.00 in0.0 mm 0.00 in0.0 mm 0.00 in0.0 mm
03:00 AM 33.8°F1.0°C 30.7°F-0.7°C 88% 1.5 mph NNE2.4 kmh NNE 3.8 mph6.1 kmh 30.33 in1027.1 mb 0.00 in0.0 mm 0.00 in0.0 mm 0.00 in0.0 mm
03:05 AM 33.8°F1.0°C 30.6°F-0.8°C 88% 0.7 mph NE1.1 kmh NE 1.6 mph2.6 kmh 30.32 in1026.8 mb 0.00 in0.0 mm 0.00 in0.0 mm 0.00 in0.0 mm
03:10 AM 33.7°F0.9°C 30.6°F-0.8°C 88% 1.6 mph NNE2.6 kmh NNE 3.8 mph6.1 kmh 30.32 in1026.8 mb 0.00 in0.0 mm 0.00 in0.0 mm 0.00 in0.0 mm
03:15 AM 33.8°F1.0°C 30.9°F-0.6°C 89% 1.3 mph NE2.1 kmh NE 2.2 mph3.5 kmh 30.32 in1026.8 mb 0.00 in0.0 mm 0.00 in0.0 mm 0.00 in0.0 mm
03:20 AM 34.0°F1.1°C 31.1°F-0.5°C 89% 1.5 mph NE2.4 kmh NE 3.1 mph5.0 kmh 30.32 in1026.8 mb 0.00 in0.0 mm 0.00 in0.0 mm 0.00 in0.0 mm
03:25 AM 34.1°F1.2°C 31.4°F-0.3°C 90% 2.5 mph NE4.0 kmh NE 4.5 mph7.2 kmh 30.32 in1026.8 mb 0.00 in0.0 mm 0.00 in0.0 mm 0.00 in0.0 mm
03:30 AM 34.2°F1.2°C 31.5°F-0.3°C 90% 2.2 mph ENE3.5 kmh ENE 3.1 mph5.0 kmh 30.33 in1027.1 mb 0.00 in0.0 mm 0.00 in0.0 mm 0.00 in0.0 mm
03:35 AM 34.2°F1.2°C 31.5°F-0.3°C 90% 1.1 mph ENE1.8 kmh ENE 2.2 mph3.5 kmh 30.32 in1026.8 mb 0.00 in0.0 mm 0.00 in0.0 mm 0.00 in0.0 mm
03:40 AM 34.2°F1.2°C 31.5°F-0.3°C 90% 0.7 mph NNE1.1 kmh NNE 1.6 mph2.6 kmh 30.32 in1026.8 mb 0.00 in0.0 mm 0.00 in0.0 mm 0.00 in0.0 mm
03:45 AM 34.2°F1.2°C 31.6°F-0.2°C 90% 1.5 mph NE2.4 kmh NE 3.1 mph5.0 kmh 30.32 in1026.8 mb 0.00 in0.0 mm 0.00 in0.0 mm 0.00 in0.0 mm
03:50 AM 34.3°F1.3°C 31.7°F-0.2°C 90% 1.7 mph N2.7 kmh N 3.8 mph6.1 kmh 30.32 in1026.8 mb 0.00 in0.0 mm 0.00 in0.0 mm 0.00 in0.0 mm
03:55 AM 34.4°F1.3°C 31.9°F-0.1°C 91% 1.6 mph NE2.6 kmh NE 2.2 mph3.5 kmh 30.32 in1026.8 mb 0.00 in0.0 mm 0.00 in0.0 mm 0.00 in0.0 mm
04:00 AM 34.5°F1.4°C 32.2°F0.1°C 91% 0.3 mph NE0.5 kmh NE 1.6 mph2.6 kmh 30.32 in1026.8 mb 0.00 in0.0 mm 0.00 in0.0 mm 0.00 in0.0 mm
04:05 AM 34.5°F1.4°C 32.2°F0.1°C 91% 1.9 mph NE3.1 kmh NE 4.5 mph7.2 kmh 30.32 in1026.8 mb 0.00 in0.0 mm 0.00 in0.0 mm 0.00 in0.0 mm
04:10 AM 34.5°F1.4°C 32.2°F0.1°C 91% 1.8 mph NE2.9 kmh NE 3.8 mph6.1 kmh 30.32 in1026.8 mb 0.00 in0.0 mm 0.00 in0.0 mm 0.00 in0.0 mm
04:15 AM 34.4°F1.3°C 32.1°F0.1°C 91% Calm Calm -- 30.32 in1026.8 mb 0.00 in0.0 mm 0.00 in0.0 mm 0.00 in0.0 mm
04:20 AM 34.3°F1.3°C 32.0°F0.0°C 91% 0.6 mph NE1.0 kmh NE 2.2 mph3.5 kmh 30.32 in1026.8 mb 0.00 in0.0 mm 0.00 in0.0 mm 0.00 in0.0 mm
04:25 AM 34.3°F1.3°C 32.0°F0.0°C 91% 0.7 mph NNE1.1 kmh NNE 1.6 mph2.6 kmh 30.32 in1026.8 mb 0.00 in0.0 mm 0.00 in0.0 mm 0.00 in0.0 mm
04:30 AM 34.2°F1.2°C 31.8°F-0.1°C 91% 1.2 mph NE1.9 kmh NE 3.1 mph5.0 kmh 30.32 in1026.8 mb 0.00 in0.0 mm 0.00 in0.0 mm 0.00 in0.0 mm
04:35 AM 34.1°F1.2°C 31.8°F-0.1°C 91% 2.1 mph N3.4 kmh N 3.1 mph5.0 kmh 30.32 in1026.8 mb 0.00 in0.0 mm 0.00 in0.0 mm 0.00 in0.0 mm
04:40 AM 34.2°F1.2°C 31.8°F-0.1°C 91% 1.1 mph NE1.8 kmh NE 2.2 mph3.5 kmh 30.32 in1026.8 mb 0.00 in0.0 mm 0.00 in0.0 mm 0.00 in0.0 mm
04:45 AM 34.1°F1.2°C 31.7°F-0.2°C 91% 1.9 mph ENE3.1 kmh ENE 3.8 mph6.1 kmh 30.32 in1026.8 mb 0.00 in0.0 mm 0.00 in0.0 mm 0.00 in0.0 mm
04:50 AM 34.0°F1.1°C 31.6°F-0.2°C 91% 2.7 mph NNE4.3 kmh NNE 4.5 mph7.2 kmh 30.32 in1026.8 mb 0.00 in0.0 mm 0.00 in0.0 mm 0.00 in0.0 mm
04:55 AM 33.8°F1.0°C 31.5°F-0.3°C 91% 2.3 mph NE3.7 kmh NE 3.8 mph6.1 kmh 30.32 in1026.8 mb 0.00 in0.0 mm 0.00 in0.0 mm 0.00 in0.0 mm
05:00 AM 33.6°F0.9°C 31.3°F-0.4°C 91% 1.0 mph NE1.6 kmh NE 2.2 mph3.5 kmh 30.32 in1026.8 mb 0.00 in0.0 mm 0.00 in0.0 mm 0.00 in0.0 mm
05:05 AM 33.6°F0.9°C 31.3°F-0.4°C 91% Calm Calm 0.7 mph1.1 kmh 30.32 in1026.8 mb 0.00 in0.0 mm 0.00 in0.0 mm 0.00 in0.0 mm
05:10 AM 33.4°F0.8°C 30.9°F-0.6°C 90% 0.6 mph NE1.0 kmh NE 2.2 mph3.5 kmh 30.32 in1026.8 mb 0.00 in0.0 mm 0.00 in0.0 mm 0.00 in0.0 mm
05:15 AM 33.2°F0.7°C 30.5°F-0.8°C 90% 0.7 mph N1.1 kmh N 2.2 mph3.5 kmh 30.32 in1026.8 mb 0.00 in0.0 mm 0.00 in0.0 mm 0.00 in0.0 mm
05:20 AM 33.0°F0.6°C 30.4°F-0.9°C 90% 1.1 mph NE1.8 kmh NE 3.1 mph5.0 kmh 30.32 in1026.8 mb 0.00 in0.0 mm 0.00 in0.0 mm 0.00 in0.0 mm
05:25 AM 32.9°F0.5°C 30.3°F-0.9°C 90% 2.1 mph NE3.4 kmh NE 3.1 mph5.0 kmh 30.32 in1026.8 mb 0.00 in0.0 mm 0.00 in0.0 mm 0.00 in0.0 mm
05:30 AM 32.7°F0.4°C 30.1°F-1.1°C 90% 2.3 mph NE3.7 kmh NE 3.8 mph6.1 kmh 30.32 in1026.8 mb 0.00 in0.0 mm 0.00 in0.0 mm 0.00 in0.0 mm
05:35 AM 32.7°F0.4°C 30.1°F-1.1°C 90% 2.3 mph NE3.7 kmh NE 3.8 mph6.1 kmh 30.32 in1026.8 mb 0.00 in0.0 mm 0.00 in0.0 mm 0.00 in0.0 mm
05:40 AM 32.8°F0.4°C 30.2°F-1.0°C 90% 1.6 mph NE2.6 kmh NE 3.8 mph6.1 kmh 30.32 in1026.8 mb 0.00 in0.0 mm 0.00 in0.0 mm 0.00 in0.0 mm
05:45 AM 32.7°F0.4°C 30.1°F-1.1°C 90% 2.5 mph NE4.0 kmh NE 3.8 mph6.1 kmh 30.33 in1027.1 mb 0.00 in0.0 mm 0.00 in0.0 mm 0.00 in0.0 mm
05:50 AM 32.7°F0.4°C 30.1°F-1.1°C 90% 1.1 mph ENE1.8 kmh ENE 2.2 mph3.5 kmh 30.33 in1027.1 mb 0.00 in0.0 mm 0.00 in0.0 mm 0.00 in0.0 mm
05:55 AM 32.7°F0.4°C 30.1°F-1.1°C 90% 0.2 mph NE0.3 kmh NE 0.7 mph1.1 kmh 30.33 in1027.1 mb 0.00 in0.0 mm 0.00 in0.0 mm 0.00 in0.0 mm
06:00 AM 32.7°F0.4°C 30.1°F-1.1°C 90% 0.2 mph NE0.3 kmh NE 2.2 mph3.5 kmh 30.33 in1027.1 mb 0.00 in0.0 mm 0.00 in0.0 mm 0.00 in0.0 mm
06:05 AM 32.8°F0.4°C 30.2°F-1.0°C 90% 2.1 mph NE3.4 kmh NE 3.1 mph5.0 kmh 30.33 in1027.1 mb 0.00 in0.0 mm 0.00 in0.0 mm 0.00 in0.0 mm
06:10 AM 32.9°F0.5°C 30.4°F-0.9°C 90% 1.6 mph NE2.6 kmh NE 3.1 mph5.0 kmh 30.33 in1027.1 mb 0.00 in0.0 mm 0.00 in0.0 mm 0.00 in0.0 mm
06:15 AM 32.9°F0.5°C 30.6°F-0.8°C 91% 1.7 mph NE2.7 kmh NE 3.1 mph5.0 kmh 30.33 in1027.1 mb 0.00 in0.0 mm 0.00 in0.0 mm 0.00 in0.0 mm
06:20 AM 33.1°F0.6°C 30.8°F-0.7°C 91% 1.4 mph ENE2.3 kmh ENE 3.1 mph5.0 kmh 30.33 in1027.1 mb 0.00 in0.0 mm 0.00 in0.0 mm 0.00 in0.0 mm
06:25 AM 33.3°F0.7°C 31.0°F-0.6°C 91% 0.5 mph NE0.8 kmh NE 2.2 mph3.5 kmh 30.33 in1027.1 mb 0.00 in0.0 mm 0.00 in0.0 mm 0.00 in0.0 mm
06:30 AM 33.7°F0.9°C 31.4°F-0.3°C 91% 0.8 mph NE1.3 kmh NE 2.2 mph3.5 kmh 30.33 in1027.1 mb 0.00 in0.0 mm 0.00 in0.0 mm 0.00 in0.0 mm
06:35 AM 34.4°F1.3°C 32.3°F0.2°C 92% 0.9 mph ENE1.4 kmh ENE 2.2 mph3.5 kmh 30.33 in1027.1 mb 0.00 in0.0 mm 0.00 in0.0 mm 0.00 in0.0 mm
06:40 AM 35.4°F1.9°C 33.4°F0.8°C 92% 0.9 mph NE1.4 kmh NE 3.1 mph5.0 kmh 30.33 in1027.1 mb 0.00 in0.0 mm 0.00 in0.0 mm 0.00 in0.0 mm
06:45 AM 36.2°F2.3°C 34.4°F1.3°C 93% 0.1 mph S0.2 kmh S 1.6 mph2.6 kmh 30.33 in1027.1 mb 0.00 in0.0 mm 0.00 in0.0 mm 0.00 in0.0 mm
06:50 AM 36.8°F2.7°C 35.1°F1.7°C 94% 0.7 mph ESE1.1 kmh ESE 1.6 mph2.6 kmh 30.33 in1027.1 mb 0.00 in0.0 mm 0.00 in0.0 mm 0.00 in0.0 mm
06:55 AM 37.6°F3.1°C 36.1°F2.3°C 94% 1.2 mph NE1.9 kmh NE 2.2 mph3.5 kmh 30.33 in1027.1 mb 0.00 in0.0 mm 0.00 in0.0 mm 0.00 in0.0 mm
07:00 AM 38.5°F3.6°C 37.4°F3.0°C 96% 2.0 mph ENE3.2 kmh ENE 3.8 mph6.1 kmh 30.33 in1027.1 mb 0.00 in0.0 mm 0.00 in0.0 mm 0.00 in0.0 mm
07:05 AM 39.0°F3.9°C 38.0°F3.3°C 96% 1.6 mph SE2.6 kmh SE 2.2 mph3.5 kmh 30.33 in1027.1 mb 0.00 in0.0 mm 0.00 in0.0 mm 0.00 in0.0 mm
07:10 AM 40.0°F4.4°C 39.4°F4.1°C 98% 2.2 mph N3.5 kmh N 3.8 mph6.1 kmh 30.33 in1027.1 mb 0.00 in0.0 mm 0.00 in0.0 mm 0.00 in0.0 mm
07:15 AM 40.5°F4.7°C 40.2°F4.6°C 99% 1.9 mph ENE3.1 kmh ENE 3.8 mph6.1 kmh 30.33 in1027.1 mb 0.00 in0.0 mm 0.00 in0.0 mm 0.00 in0.0 mm
07:20 AM 41.3°F5.2°C 41.0°F5.0°C 99% 1.2 mph ENE1.9 kmh ENE 3.1 mph5.0 kmh 30.33 in1027.1 mb 0.00 in0.0 mm 0.00 in0.0 mm 0.00 in0.0 mm
07:25 AM 42.0°F5.6°C 41.7°F5.4°C 99% 1.3 mph E2.1 kmh E 3.1 mph5.0 kmh 30.33 in1027.1 mb 0.00 in0.0 mm 0.00 in0.0 mm 0.00 in0.0 mm
07:30 AM 42.3°F5.7°C 42.0°F5.6°C 99% 0.5 mph E0.8 kmh E 2.2 mph3.5 kmh 30.33 in1027.1 mb 0.00 in0.0 mm 0.00 in0.0 mm 0.00 in0.0 mm
07:35 AM 43.0°F6.1°C 42.7°F5.9°C 99% 0.5 mph S0.8 kmh S 2.2 mph3.5 kmh 30.33 in1027.1 mb 0.00 in0.0 mm 0.00 in0.0 mm 0.00 in0.0 mm
07:40 AM 43.3°F6.3°C 43.1°F6.2°C 99% 0.6 mph SSE1.0 kmh SSE 2.2 mph3.5 kmh 30.33 in1027.1 mb 0.00 in0.0 mm 0.00 in0.0 mm 0.00 in0.0 mm
07:45 AM 44.0°F6.7°C 43.8°F6.6°C 99% 1.1 mph ESE1.8 kmh ESE 2.2 mph3.5 kmh 30.33 in1027.1 mb 0.00 in0.0 mm 0.00 in0.0 mm 0.00 in0.0 mm
07:50 AM 44.8°F7.1°C 44.6°F7.0°C 99% 1.1 mph SSE1.8 kmh SSE 2.2 mph3.5 kmh 30.33 in1027.1 mb 0.00 in0.0 mm 0.00 in0.0 mm 0.00 in0.0 mm
07:55 AM 45.5°F7.5°C 44.9°F7.2°C 98% 1.4 mph SE2.3 kmh SE 2.2 mph3.5 kmh 30.33 in1027.1 mb 0.00 in0.0 mm 0.00 in0.0 mm 0.00 in0.0 mm
08:00 AM 46.5°F8.1°C 44.7°F7.1°C 94% 1.1 mph SSE1.8 kmh SSE 2.2 mph3.5 kmh 30.33 in1027.1 mb 0.00 in0.0 mm 0.00 in0.0 mm 0.00 in0.0 mm
08:05 AM 47.0°F8.3°C 45.0°F7.2°C 93% 1.4 mph S2.3 kmh S 2.2 mph3.5 kmh 30.33 in1027.1 mb 0.00 in0.0 mm 0.00 in0.0 mm 0.00 in0.0 mm
08:10 AM 47.6°F8.7°C 44.8°F7.1°C 90% 1.6 mph SE2.6 kmh SE 2.2 mph3.5 kmh 30.32 in1026.8 mb 0.00 in0.0 mm 0.00 in0.0 mm 0.00 in0.0 mm
08:15 AM 48.4°F9.1°C 44.8°F7.1°C 87% 1.2 mph S1.9 kmh S 2.2 mph3.5 kmh 30.32 in1026.8 mb 0.00 in0.0 mm 0.00 in0.0 mm 0.00 in0.0 mm
08:20 AM 49.2°F9.6°C 44.6°F7.0°C 84% 1.9 mph SSE3.1 kmh SSE 3.1 mph5.0 kmh 30.32 in1026.8 mb 0.00 in0.0 mm 0.00 in0.0 mm 0.00 in0.0 mm
08:25 AM 49.5°F9.7°C 44.0°F6.7°C 81% 1.0 mph S1.6 kmh S 3.1 mph5.0 kmh 30.32 in1026.8 mb 0.00 in0.0 mm 0.00 in0.0 mm 0.00 in0.0 mm
08:30 AM 50.2°F10.1°C 44.2°F6.8°C 80% 1.9 mph SSE3.1 kmh SSE 3.8 mph6.1 kmh 30.32 in1026.8 mb 0.00 in0.0 mm 0.00 in0.0 mm 0.00 in0.0 mm
08:35 AM 50.7°F10.4°C 44.3°F6.8°C 78% 2.8 mph W4.5 kmh W 5.4 mph8.7 kmh 30.32 in1026.8 mb 0.00 in0.0 mm 0.00 in0.0 mm 0.00 in0.0 mm
08:40 AM 52.2°F11.2°C 46.3°F7.9°C 80% 4.2 mph NNW6.8 kmh NNW 5.4 mph8.7 kmh 30.32 in1026.8 mb 0.00 in0.0 mm 0.00 in0.0 mm 0.00 in0.0 mm
08:45 AM 53.2°F11.8°C 46.6°F8.1°C 78% 3.9 mph NW6.3 kmh NW 6.0 mph9.7 kmh 30.32 in1026.8 mb 0.00 in0.0 mm 0.00 in0.0 mm 0.00 in0.0 mm
08:50 AM 54.2°F12.3°C 47.3°F8.5°C 77% 4.1 mph NNW6.6 kmh NNW 7.6 mph12.2 kmh 30.31 in1026.4 mb 0.00 in0.0 mm 0.00 in0.0 mm 0.00 in0.0 mm
08:55 AM 54.8°F12.7°C 46.0°F7.8°C 72% 3.7 mph WNW6.0 kmh WNW 6.9 mph11.1 kmh 30.31 in1026.4 mb 0.00 in0.0 mm 0.00 in0.0 mm 0.00 in0.0 mm
09:00 AM 54.2°F12.3°C 45.1°F7.3°C 71% 5.6 mph NW9.0 kmh NW 9.8 mph15.8 kmh 30.32 in1026.8 mb 0.00 in0.0 mm 0.00 in0.0 mm 0.00 in0.0 mm
09:05 AM 54.0°F12.2°C 44.8°F7.1°C 71% 5.4 mph SW8.7 kmh SW 7.6 mph12.2 kmh 30.32 in1026.8 mb 0.00 in0.0 mm 0.00 in0.0 mm 0.00 in0.0 mm
09:10 AM 54.7°F12.6°C 45.2°F7.3°C 70% 6.3 mph N10.1 kmh N 11.4 mph18.3 kmh 30.32 in1026.8 mb 0.00 in0.0 mm 0.00 in0.0 mm 0.00 in0.0 mm
09:15 AM 55.3°F12.9°C 44.3°F6.8°C 67% 7.0 mph NNW11.3 kmh NNW 12.1 mph19.5 kmh 30.32 in1026.8 mb 0.00 in0.0 mm 0.00 in0.0 mm 0.00 in0.0 mm
09:20 AM 55.9°F13.3°C 44.1°F6.7°C 64% 6.9 mph N11.1 kmh N 11.4 mph18.3 kmh 30.32 in1026.8 mb 0.00 in0.0 mm 0.00 in0.0 mm 0.00 in0.0 mm
09:25 AM 56.6°F13.7°C 44.2°F6.8°C 63% 7.6 mph 12.2 kmh 9.8 mph15.8 kmh 30.31 in1026.4 mb 0.00 in0.0 mm 0.00 in0.0 mm 0.00 in0.0 mm
09:30 AM 56.8°F13.8°C 43.7°F6.5°C 61% 8.6 mph N13.8 kmh N 11.4 mph18.3 kmh 30.32 in1026.8 mb 0.00 in0.0 mm 0.00 in0.0 mm 0.00 in0.0 mm
09:35 AM 57.3°F14.1°C 44.7°F7.1°C 63% 6.2 mph NNW10.0 kmh NNW 9.8 mph15.8 kmh 30.31 in1026.4 mb 0.00 in0.0 mm 0.00 in0.0 mm 0.00 in0.0 mm
09:40 AM 58.4°F14.7°C 45.5°F7.5°C 62% 7.5 mph N12.1 kmh N 12.1 mph19.5 kmh 30.31 in1026.4 mb 0.00 in0.0 mm 0.00 in0.0 mm 0.00 in0.0 mm
09:45 AM 58.3°F14.6°C 44.1°F6.7°C 59% 8.3 mph N13.4 kmh N 12.1 mph19.5 kmh 30.31 in1026.4 mb 0.00 in0.0 mm 0.00 in0.0 mm 0.00 in0.0 mm
09:50 AM 57.0°F13.9°C 42.1°F5.6°C 58% 6.2 mph NE10.0 kmh NE 9.8 mph15.8 kmh 30.31 in1026.4 mb 0.00 in0.0 mm 0.00 in0.0 mm 0.00 in0.0 mm
09:55 AM 57.3°F14.1°C 43.4°F6.3°C 60% 8.4 mph NE13.5 kmh NE 11.4 mph18.3 kmh 30.31 in1026.4 mb 0.00 in0.0 mm 0.00 in0.0 mm 0.00 in0.0 mm
10:00 AM 58.6°F14.8°C 44.7°F7.1°C 60% 7.8 mph N12.6 kmh N 11.4 mph18.3 kmh 30.31 in1026.4 mb 0.00 in0.0 mm 0.00 in0.0 mm 0.00 in0.0 mm
10:05 AM 59.0°F15.0°C 43.8°F6.6°C 57% 6.0 mph NNE9.7 kmh NNE 8.3 mph13.4 kmh 30.30 in1026.1 mb 0.00 in0.0 mm 0.00 in0.0 mm 0.00 in0.0 mm
10:10 AM 59.1°F15.1°C 43.1°F6.2°C 55% 10.3 mph NNW16.6 kmh NNW 16.8 mph27.0 kmh 30.31 in1026.4 mb 0.00 in0.0 mm 0.00 in0.0 mm 0.00 in0.0 mm
10:15 AM 59.6°F15.3°C 43.0°F6.1°C 54% 8.3 mph N13.4 kmh N 13.6 mph21.9 kmh 30.30 in1026.1 mb 0.00 in0.0 mm 0.00 in0.0 mm 0.00 in0.0 mm
10:20 AM 60.2°F15.7°C 43.2°F6.2°C 53% 9.5 mph 15.3 kmh 13.6 mph21.9 kmh 30.30 in1026.1 mb 0.00 in0.0 mm 0.00 in0.0 mm 0.00 in0.0 mm
10:25 AM 59.8°F15.4°C 41.8°F5.4°C 51% 7.4 mph NNE11.9 kmh NNE 11.4 mph18.3 kmh 30.30 in1026.1 mb 0.00 in0.0 mm 0.00 in0.0 mm 0.00 in0.0 mm
10:30 AM 59.5°F15.3°C 42.1°F5.6°C 52% 7.2 mph NW11.6 kmh NW 9.8 mph15.8 kmh 30.30 in1026.1 mb 0.00 in0.0 mm 0.00 in0.0 mm 0.00 in0.0 mm
10:35 AM 58.9°F14.9°C 41.1°F5.1°C 52% 5.8 mph WNW9.3 kmh WNW 11.4 mph18.3 kmh 30.30 in1026.1 mb 0.00 in0.0 mm 0.00 in0.0 mm 0.00 in0.0 mm
10:40 AM 58.9°F14.9°C 41.3°F5.2°C 52% 7.7 mph NW12.4 kmh NW 12.1 mph19.5 kmh 30.29 in1025.7 mb 0.00 in0.0 mm 0.00 in0.0 mm 0.00 in0.0 mm
10:45 AM 60.5°F15.8°C 43.8°F6.6°C 54% 7.7 mph NNW12.4 kmh NNW 13.0 mph20.9 kmh 30.29 in1025.7 mb 0.00 in0.0 mm 0.00 in0.0 mm 0.00 in0.0 mm
10:50 AM 61.5°F16.4°C 44.0°F6.7°C 53% 8.5 mph NNW13.7 kmh NNW 13.0 mph20.9 kmh 30.29 in1025.7 mb 0.00 in0.0 mm 0.00 in0.0 mm 0.00 in0.0 mm
10:55 AM 61.8°F16.6°C 43.1°F6.2°C 50% 7.4 mph N11.9 kmh N 14.5 mph23.3 kmh 30.29 in1025.7 mb 0.00 in0.0 mm 0.00 in0.0 mm 0.00 in0.0 mm
11:00 AM 61.4°F16.3°C 42.4°F5.8°C 50% 8.6 mph N13.8 kmh N 11.4 mph18.3 kmh 30.28 in1025.4 mb 0.00 in0.0 mm 0.00 in0.0 mm 0.00 in0.0 mm
11:05 AM 61.2°F16.2°C 41.3°F5.2°C 48% 3.8 mph NE6.1 kmh NE 5.4 mph8.7 kmh 30.29 in1025.7 mb 0.00 in0.0 mm 0.00 in0.0 mm 0.00 in0.0 mm
11:10 AM 60.6°F15.9°C 39.7°F4.3°C 46% 8.9 mph N14.3 kmh N 15.2 mph24.5 kmh 30.29 in1025.7 mb 0.00 in0.0 mm 0.00 in0.0 mm 0.00 in0.0 mm
11:15 AM 59.4°F15.2°C 39.9°F4.4°C 48% 9.4 mph N15.1 kmh N 18.3 mph29.5 kmh 30.29 in1025.7 mb 0.00 in0.0 mm 0.00 in0.0 mm 0.00 in0.0 mm
11:20 AM 60.5°F15.8°C 43.3°F6.3°C 53% 10.4 mph N16.7 kmh N 15.2 mph24.5 kmh 30.29 in1025.7 mb 0.00 in0.0 mm 0.00 in0.0 mm 0.00 in0.0 mm
11:25 AM 61.1°F16.2°C 43.3°F6.3°C 52% 10.7 mph NW17.2 kmh NW 15.2 mph24.5 kmh 30.29 in1025.7 mb 0.00 in0.0 mm 0.00 in0.0 mm 0.00 in0.0 mm
11:30 AM 61.6°F16.4°C 43.8°F6.6°C 52% 8.9 mph N14.3 kmh N 13.6 mph21.9 kmh 30.29 in1025.7 mb 0.00 in0.0 mm 0.00 in0.0 mm 0.00 in0.0 mm
11:35 AM 61.6°F16.4°C 43.3°F6.3°C 51% 6.1 mph N9.8 kmh N 10.7 mph17.2 kmh 30.29 in1025.7 mb 0.00 in0.0 mm 0.00 in0.0 mm 0.00 in0.0 mm
11:40 AM 61.3°F16.3°C 42.3°F5.7°C 50% 6.2 mph NNW10.0 kmh NNW 10.7 mph17.2 kmh 30.28 in1025.4 mb 0.00 in0.0 mm 0.00 in0.0 mm 0.00 in0.0 mm
11:45 AM 61.2°F16.2°C 40.8°F4.9°C 47% 5.8 mph WNW9.3 kmh WNW 9.8 mph15.8 kmh 30.28 in1025.4 mb 0.00 in0.0 mm 0.00 in0.0 mm 0.00 in0.0 mm
11:50 AM 61.4°F16.3°C 41.0°F5.0°C 47% 6.3 mph WNW10.1 kmh WNW 9.2 mph14.8 kmh 30.27 in1025.1 mb 0.00 in0.0 mm 0.00 in0.0 mm 0.00 in0.0 mm
11:55 AM 61.8°F16.6°C 40.6°F4.8°C 46% 6.6 mph NNW10.6 kmh NNW 12.1 mph19.5 kmh 30.27 in1025.1 mb 0.00 in0.0 mm 0.00 in0.0 mm 0.00 in0.0 mm
12:00 PM 62.4°F16.9°C 41.5°F5.3°C 46% 7.6 mph N12.2 kmh N 10.7 mph17.2 kmh 30.27 in1025.1 mb 0.00 in0.0 mm 0.00 in0.0 mm 0.00 in0.0 mm
12:05 PM 62.2°F16.8°C 40.6°F4.8°C 45% 7.6 mph 12.2 kmh 10.7 mph17.2 kmh 30.27 in1025.1 mb 0.00 in0.0 mm 0.00 in0.0 mm 0.00 in0.0 mm
12:10 PM 61.5°F16.4°C 39.5°F4.2°C 44% 14.1 mph N22.7 kmh N 22.1 mph35.6 kmh 30.28 in1025.4 mb 0.00 in0.0 mm 0.00 in0.0 mm 0.00 in0.0 mm
12:15 PM 60.6°F15.9°C 38.1°F3.4°C 43% 10.5 mph NNW16.9 kmh NNW 16.8 mph27.0 kmh 30.29 in1025.7 mb 0.00 in0.0 mm 0.00 in0.0 mm 0.00 in0.0 mm
12:20 PM 59.4°F15.2°C 37.6°F3.1°C 44% 10.6 mph NW17.1 kmh NW 15.9 mph25.6 kmh 30.29 in1025.7 mb 0.00 in0.0 mm 0.00 in0.0 mm 0.00 in0.0 mm
12:25 PM 58.2°F14.6°C 37.8°F3.2°C 46% 8.7 mph NE14.0 kmh NE 13.0 mph20.9 kmh 30.30 in1026.1 mb 0.00 in0.0 mm 0.00 in0.0 mm 0.00 in0.0 mm
12:30 PM 57.2°F14.0°C 38.5°F3.6°C 50% 9.4 mph NE15.1 kmh NE 14.5 mph23.3 kmh 30.29 in1025.7 mb 0.00 in0.0 mm 0.00 in0.0 mm 0.00 in0.0 mm
12:35 PM 56.9°F13.8°C 40.6°F4.8°C 54% 5.8 mph NNE9.3 kmh NNE 9.8 mph15.8 kmh 30.29 in1025.7 mb 0.00 in0.0 mm 0.00 in0.0 mm 0.00 in0.0 mm
12:40 PM 58.0°F14.4°C 43.5°F6.4°C 58% 9.5 mph NE15.3 kmh NE 13.0 mph20.9 kmh 30.29 in1025.7 mb 0.00 in0.0 mm 0.00 in0.0 mm 0.00 in0.0 mm
12:45 PM 58.9°F14.9°C 43.1°F6.2°C 56% 8.8 mph NE14.2 kmh NE 12.1 mph19.5 kmh 30.29 in1025.7 mb 0.00 in0.0 mm 0.00 in0.0 mm 0.00 in0.0 mm
12:50 PM 59.6°F15.3°C 42.9°F6.1°C 54% 8.9 mph NE14.3 kmh NE 11.4 mph18.3 kmh 30.29 in1025.7 mb 0.00 in0.0 mm 0.00 in0.0 mm 0.00 in0.0 mm
12:55 PM 59.9°F15.5°C 43.0°F6.1°C 54% 7.2 mph ENE11.6 kmh ENE 9.8 mph15.8 kmh 30.29 in1025.7 mb 0.00 in0.0 mm 0.00 in0.0 mm 0.00 in0.0 mm
01:00 PM 59.5°F15.3°C 42.7°F5.9°C 54% 6.8 mph E10.9 kmh E 11.4 mph18.3 kmh 30.28 in1025.4 mb 0.00 in0.0 mm 0.00 in0.0 mm 0.00 in0.0 mm
01:05 PM 59.2°F15.1°C 42.5°F5.8°C 54% 5.4 mph SE8.7 kmh SE 8.3 mph13.4 kmh 30.28 in1025.4 mb 0.00 in0.0 mm 0.00 in0.0 mm 0.00 in0.0 mm
01:10 PM 59.1°F15.1°C 43.4°F6.3°C 56% 6.6 mph NE10.6 kmh NE 9.2 mph14.8 kmh 30.27 in1025.1 mb 0.00 in0.0 mm 0.00 in0.0 mm 0.00 in0.0 mm
01:15 PM 59.1°F15.1°C 43.2°F6.2°C 56% 7.4 mph E11.9 kmh E 11.4 mph18.3 kmh 30.27 in1025.1 mb 0.00 in0.0 mm 0.00 in0.0 mm 0.00 in0.0 mm
01:20 PM 58.3°F14.6°C 41.9°F5.5°C 54% 6.7 mph NE10.8 kmh NE 9.2 mph14.8 kmh 30.28 in1025.4 mb 0.00 in0.0 mm 0.00 in0.0 mm 0.00 in0.0 mm
01:25 PM 57.5°F14.2°C 42.0°F5.6°C 56% 8.0 mph NE12.9 kmh NE 10.7 mph17.2 kmh 30.28 in1025.4 mb 0.00 in0.0 mm 0.00 in0.0 mm 0.00 in0.0 mm
01:30 PM 57.1°F13.9°C 41.4°F5.2°C 56% 5.7 mph NE9.2 kmh NE 9.2 mph14.8 kmh 30.28 in1025.4 mb 0.00 in0.0 mm 0.00 in0.0 mm 0.00 in0.0 mm
01:35 PM 56.7°F13.7°C 41.4°F5.2°C 56% 10.7 mph NE17.2 kmh NE 15.9 mph25.6 kmh 30.29 in1025.7 mb 0.00 in0.0 mm 0.00 in0.0 mm 0.00 in0.0 mm
01:40 PM 56.3°F13.5°C 41.9°F5.5°C 58% 9.1 mph NE14.6 kmh NE 12.1 mph19.5 kmh 30.29 in1025.7 mb 0.00 in0.0 mm 0.00 in0.0 mm 0.00 in0.0 mm
01:45 PM 56.1°F13.4°C 42.4°F5.8°C 60% 7.9 mph ENE12.7 kmh ENE 9.8 mph15.8 kmh 30.29 in1025.7 mb 0.00 in0.0 mm 0.00 in0.0 mm 0.00 in0.0 mm
01:50 PM 56.0°F13.3°C 42.7°F5.9°C 61% 9.9 mph NE15.9 kmh NE 15.2 mph24.5 kmh 30.29 in1025.7 mb 0.00 in0.0 mm 0.00 in0.0 mm 0.00 in0.0 mm
01:55 PM 55.7°F13.2°C 42.4°F5.8°C 61% 13.2 mph NE21.2 kmh NE 16.8 mph27.0 kmh 30.30 in1026.1 mb 0.00 in0.0 mm 0.00 in0.0 mm 0.00 in0.0 mm
02:00 PM 55.3°F12.9°C 42.3°F5.7°C 61% 9.1 mph NE14.6 kmh NE 13.6 mph21.9 kmh 30.29 in1025.7 mb 0.00 in0.0 mm 0.00 in0.0 mm 0.00 in0.0 mm
02:05 PM 55.2°F12.9°C 42.4°F5.8°C 62% 7.6 mph NE12.2 kmh NE 9.2 mph14.8 kmh 30.29 in1025.7 mb 0.00 in0.0 mm 0.00 in0.0 mm 0.00 in0.0 mm
02:10 PM 54.9°F12.7°C 43.1°F6.2°C 64% 6.3 mph NE10.1 kmh NE 9.2 mph14.8 kmh 30.30 in1026.1 mb 0.00 in0.0 mm 0.00 in0.0 mm 0.00 in0.0 mm
02:15 PM 54.5°F12.5°C 43.4°F6.3°C 66% 4.5 mph NE7.2 kmh NE 8.3 mph13.4 kmh 30.30 in1026.1 mb 0.00 in0.0 mm 0.00 in0.0 mm 0.00 in0.0 mm
02:20 PM 54.2°F12.3°C 43.3°F6.3°C 67% 5.7 mph NE9.2 kmh NE 9.8 mph15.8 kmh 30.29 in1025.7 mb 0.00 in0.0 mm 0.00 in0.0 mm 0.00 in0.0 mm
02:25 PM 53.9°F12.2°C 43.2°F6.2°C 67% 5.1 mph NE8.2 kmh NE 8.3 mph13.4 kmh 30.29 in1025.7 mb 0.00 in0.0 mm 0.00 in0.0 mm 0.00 in0.0 mm
02:30 PM 53.8°F12.1°C 43.4°F6.3°C 68% 2.4 mph NNE3.9 kmh NNE 3.8 mph6.1 kmh 30.29 in1025.7 mb 0.00 in0.0 mm 0.00 in0.0 mm 0.00 in0.0 mm
02:35 PM 54.0°F12.2°C 44.2°F6.8°C 69% 3.6 mph NNE5.8 kmh NNE 5.4 mph8.7 kmh 30.29 in1025.7 mb 0.00 in0.0 mm 0.00 in0.0 mm 0.00 in0.0 mm
02:40 PM 54.4°F12.4°C 44.6°F7.0°C 69% 4.9 mph NE7.9 kmh NE 6.9 mph11.1 kmh 30.29 in1025.7 mb 0.00 in0.0 mm 0.00 in0.0 mm 0.00 in0.0 mm
02:45 PM 55.0°F12.8°C 42.9°F6.1°C 64% 4.9 mph NE7.9 kmh NE 8.3 mph13.4 kmh 30.29 in1025.7 mb 0.00 in0.0 mm 0.00 in0.0 mm 0.00 in0.0 mm
02:50 PM 55.2°F12.9°C 42.5°F5.8°C 62% 3.9 mph NNE6.3 kmh NNE 6.0 mph9.7 kmh 30.29 in1025.7 mb 0.00 in0.0 mm 0.00 in0.0 mm 0.00 in0.0 mm
02:55 PM 55.0°F12.8°C 41.8°F5.4°C 61% 3.2 mph N5.1 kmh N 6.0 mph9.7 kmh 30.29 in1025.7 mb 0.00 in0.0 mm 0.00 in0.0 mm 0.00 in0.0 mm
03:00 PM 55.0°F12.8°C 41.8°F5.4°C 61% 4.2 mph N6.8 kmh N 6.9 mph11.1 kmh 30.28 in1025.4 mb 0.00 in0.0 mm 0.00 in0.0 mm 0.00 in0.0 mm
03:05 PM 55.1°F12.8°C 41.9°F5.5°C 61% 4.0 mph N6.4 kmh N 7.6 mph12.2 kmh 30.29 in1025.7 mb 0.00 in0.0 mm 0.00 in0.0 mm 0.00 in0.0 mm
03:10 PM 55.2°F12.9°C 42.0°F5.6°C 61% 3.7 mph NW6.0 kmh NW 6.0 mph9.7 kmh 30.29 in1025.7 mb 0.00 in0.0 mm 0.00 in0.0 mm 0.00 in0.0 mm
03:15 PM 55.2°F12.9°C 42.1°F5.6°C 61% 3.0 mph NNE4.8 kmh NNE 5.4 mph8.7 kmh 30.28 in1025.4 mb 0.00 in0.0 mm 0.00 in0.0 mm 0.00 in0.0 mm
03:20 PM 55.2°F12.9°C 42.1°F5.6°C 61% 3.1 mph NNE5.0 kmh NNE 4.5 mph7.2 kmh 30.29 in1025.7 mb 0.00 in0.0 mm 0.00 in0.0 mm 0.00 in0.0 mm
03:25 PM 55.2°F12.9°C 42.2°F5.7°C 62% 3.7 mph N6.0 kmh N 5.4 mph8.7 kmh 30.29 in1025.7 mb 0.00 in0.0 mm 0.00 in0.0 mm 0.00 in0.0 mm
03:30 PM 55.1°F12.8°C 41.9°F5.5°C 61% 2.6 mph N4.2 kmh N 4.5 mph7.2 kmh 30.29 in1025.7 mb 0.00 in0.0 mm 0.00 in0.0 mm 0.00 in0.0 mm
03:35 PM 55.0°F12.8°C 41.8°F5.4°C 61% 3.1 mph NNW5.0 kmh NNW 6.0 mph9.7 kmh 30.29 in1025.7 mb 0.00 in0.0 mm 0.00 in0.0 mm 0.00 in0.0 mm
03:40 PM 54.8°F12.7°C 42.1°F5.6°C 62% 3.8 mph NW6.1 kmh NW 6.0 mph9.7 kmh 30.29 in1025.7 mb 0.00 in0.0 mm 0.00 in0.0 mm 0.00 in0.0 mm
03:45 PM 54.6°F12.6°C 42.6°F5.9°C 64% 4.7 mph NNW7.6 kmh NNW 7.6 mph12.2 kmh 30.29 in1025.7 mb 0.00 in0.0 mm 0.00 in0.0 mm 0.00 in0.0 mm
03:50 PM 54.3°F12.4°C 42.0°F5.6°C 63% 5.5 mph W8.9 kmh W 9.2 mph14.8 kmh 30.29 in1025.7 mb 0.00 in0.0 mm 0.00 in0.0 mm 0.00 in0.0 mm
03:55 PM 54.1°F12.3°C 41.4°F5.2°C 62% 7.1 mph NW11.4 kmh NW 10.7 mph17.2 kmh 30.29 in1025.7 mb 0.00 in0.0 mm 0.00 in0.0 mm 0.00 in0.0 mm
04:00 PM 53.9°F12.2°C 41.2°F5.1°C 62% 2.4 mph 3.9 kmh 5.4 mph8.7 kmh 30.29 in1025.7 mb 0.00 in0.0 mm 0.00 in0.0 mm 0.00 in0.0 mm
04:05 PM 53.8°F12.1°C 41.1°F5.1°C 62% 3.8 mph NW6.1 kmh NW 5.4 mph8.7 kmh 30.29 in1025.7 mb 0.00 in0.0 mm 0.00 in0.0 mm 0.00 in0.0 mm
04:10 PM 53.7°F12.1°C 41.0°F5.0°C 62% 2.9 mph NW4.7 kmh NW 5.4 mph8.7 kmh 30.29 in1025.7 mb 0.00 in0.0 mm 0.00 in0.0 mm 0.00 in0.0 mm
04:15 PM 53.6°F12.0°C 40.9°F4.9°C 62% 2.8 mph NW4.5 kmh NW 4.5 mph7.2 kmh 30.29 in1025.7 mb 0.00 in0.0 mm 0.00 in0.0 mm 0.00 in0.0 mm
04:20 PM 53.4°F11.9°C 40.4°F4.7°C 61% 2.5 mph NW4.0 kmh NW 4.5 mph7.2 kmh 30.29 in1025.7 mb 0.00 in0.0 mm 0.00 in0.0 mm 0.00 in0.0 mm
04:25 PM 53.3°F11.8°C 40.2°F4.6°C 61% 1.5 mph NW2.4 kmh NW 3.8 mph6.1 kmh 30.29 in1025.7 mb 0.00 in0.0 mm 0.00 in0.0 mm 0.00 in0.0 mm
04:30 PM 53.2°F11.8°C 40.2°F4.6°C 61% 1.6 mph NW2.6 kmh NW 3.8 mph6.1 kmh 30.29 in1025.7 mb 0.00 in0.0 mm 0.00 in0.0 mm 0.00 in0.0 mm
04:35 PM 53.0°F11.7°C 40.3°F4.6°C 62% 2.1 mph N3.4 kmh N 3.8 mph6.1 kmh 30.29 in1025.7 mb 0.00 in0.0 mm 0.00 in0.0 mm 0.00 in0.0 mm
04:40 PM 52.9°F11.6°C 40.4°F4.7°C 63% 2.3 mph N3.7 kmh N 4.5 mph7.2 kmh 30.29 in1025.7 mb 0.00 in0.0 mm 0.00 in0.0 mm 0.00 in0.0 mm
04:45 PM 52.6°F11.4°C 40.4°F4.7°C 63% 1.3 mph NNW2.1 kmh NNW 2.2 mph3.5 kmh 30.29 in1025.7 mb 0.00 in0.0 mm 0.00 in0.0 mm 0.00 in0.0 mm
04:50 PM 52.3°F11.3°C 40.1°F4.5°C 63% 2.1 mph N3.4 kmh N 4.5 mph7.2 kmh 30.29 in1025.7 mb 0.00 in0.0 mm 0.00 in0.0 mm 0.00 in0.0 mm
04:55 PM 52.2°F11.2°C 40.2°F4.6°C 64% 2.2 mph 3.5 kmh 3.8 mph6.1 kmh 30.29 in1025.7 mb 0.00 in0.0 mm 0.00 in0.0 mm 0.00 in0.0 mm
05:00 PM 51.9°F11.1°C 40.1°F4.5°C 64% 3.2 mph NE5.1 kmh NE 4.5 mph7.2 kmh 30.29 in1025.7 mb 0.00 in0.0 mm 0.00 in0.0 mm 0.00 in0.0 mm
05:05 PM 51.8°F11.0°C 40.0°F4.4°C 64% 2.2 mph NE3.5 kmh NE 3.1 mph5.0 kmh 30.29 in1025.7 mb 0.00 in0.0 mm 0.00 in0.0 mm 0.00 in0.0 mm
05:10 PM 51.6°F10.9°C 40.1°F4.5°C 64% 2.0 mph NE3.2 kmh NE 3.1 mph5.0 kmh 30.29 in1025.7 mb 0.00 in0.0 mm 0.00 in0.0 mm 0.00 in0.0 mm
05:15 PM 51.4°F10.8°C 40.0°F4.4°C 65% 2.5 mph N4.0 kmh N 3.8 mph6.1 kmh 30.29 in1025.7 mb 0.00 in0.0 mm 0.00 in0.0 mm 0.00 in0.0 mm
05:20 PM 51.1°F10.6°C 39.8°F4.3°C 65% 2.4 mph N3.9 kmh N 4.5 mph7.2 kmh 30.29 in1025.7 mb 0.00 in0.0 mm 0.00 in0.0 mm 0.00 in0.0 mm
05:25 PM 50.9°F10.5°C 39.5°F4.2°C 65% 1.7 mph N2.7 kmh N 2.2 mph3.5 kmh 30.29 in1025.7 mb 0.00 in0.0 mm 0.00 in0.0 mm 0.00 in0.0 mm
05:30 PM 50.6°F10.3°C 39.3°F4.1°C 65% 1.9 mph NE3.1 kmh NE 3.1 mph5.0 kmh 30.29 in1025.7 mb 0.00 in0.0 mm 0.00 in0.0 mm 0.00 in0.0 mm
05:35 PM 50.4°F10.2°C 39.4°F4.1°C 66% 1.3 mph NNE2.1 kmh NNE 2.2 mph3.5 kmh 30.29 in1025.7 mb 0.00 in0.0 mm 0.00 in0.0 mm 0.00 in0.0 mm
05:40 PM 50.2°F10.1°C 39.5°F4.2°C 67% 1.3 mph NNW2.1 kmh NNW 2.2 mph3.5 kmh 30.29 in1025.7 mb 0.00 in0.0 mm 0.00 in0.0 mm 0.00 in0.0 mm
05:45 PM 50.0°F10.0°C 39.6°F4.2°C 67% 3.0 mph NW4.8 kmh NW 3.8 mph6.1 kmh 30.30 in1026.1 mb 0.00 in0.0 mm 0.00 in0.0 mm 0.00 in0.0 mm
05:50 PM 49.8°F9.9°C 40.0°F4.4°C 69% 1.6 mph NW2.6 kmh NW 3.8 mph6.1 kmh 30.30 in1026.1 mb 0.00 in0.0 mm 0.00 in0.0 mm 0.00 in0.0 mm
05:55 PM 49.7°F9.8°C 40.3°F4.6°C 70% 1.5 mph 2.4 kmh 2.2 mph3.5 kmh 30.30 in1026.1 mb 0.00 in0.0 mm 0.00 in0.0 mm 0.00 in0.0 mm
06:00 PM 49.5°F9.7°C 40.2°F4.6°C 70% 2.4 mph NE3.9 kmh NE 4.5 mph7.2 kmh 30.30 in1026.1 mb 0.00 in0.0 mm 0.00 in0.0 mm 0.00 in0.0 mm
06:05 PM 49.4°F9.7°C 40.4°F4.7°C 71% 2.9 mph 4.7 kmh 4.5 mph7.2 kmh 30.31 in1026.4 mb 0.00 in0.0 mm 0.00 in0.0 mm 0.00 in0.0 mm
06:10 PM 49.2°F9.6°C 40.2°F4.6°C 71% 1.4 mph 2.3 kmh 2.2 mph3.5 kmh 30.31 in1026.4 mb 0.00 in0.0 mm 0.00 in0.0 mm 0.00 in0.0 mm
06:15 PM 49.1°F9.5°C 40.1°F4.5°C 71% 1.2 mph N1.9 kmh N 3.1 mph5.0 kmh 30.31 in1026.4 mb 0.00 in0.0 mm 0.00 in0.0 mm 0.00 in0.0 mm
06:20 PM 48.9°F9.4°C 39.9°F4.4°C 71% 1.4 mph NNE2.3 kmh NNE 3.1 mph5.0 kmh 30.31 in1026.4 mb 0.00 in0.0 mm 0.00 in0.0 mm 0.00 in0.0 mm
06:25 PM 48.9°F9.4°C 39.9°F4.4°C 71% 0.3 mph NNE0.5 kmh NNE 1.6 mph2.6 kmh 30.31 in1026.4 mb 0.00 in0.0 mm 0.00 in0.0 mm 0.00 in0.0 mm
06:30 PM 48.8°F9.3°C 40.1°F4.5°C 72% Calm Calm 0.7 mph1.1 kmh 30.31 in1026.4 mb 0.00 in0.0 mm 0.00 in0.0 mm 0.00 in0.0 mm
06:35 PM 48.7°F9.3°C 40.1°F4.5°C 72% 0.8 mph NNW1.3 kmh NNW 2.2 mph3.5 kmh 30.31 in1026.4 mb 0.00 in0.0 mm 0.00 in0.0 mm 0.00 in0.0 mm
06:40 PM 48.6°F9.2°C 39.9°F4.4°C 72% 1.3 mph NNW2.1 kmh NNW 2.2 mph3.5 kmh 30.31 in1026.4 mb 0.00 in0.0 mm 0.00 in0.0 mm 0.00 in0.0 mm
06:45 PM 48.6°F9.2°C 40.0°F4.4°C 72% 0.7 mph WSW1.1 kmh WSW 2.2 mph3.5 kmh 30.31 in1026.4 mb 0.00 in0.0 mm 0.00 in0.0 mm 0.00 in0.0 mm
06:50 PM 48.6°F9.2°C 40.3°F4.6°C 73% 0.6 mph SW1.0 kmh SW 2.2 mph3.5 kmh 30.31 in1026.4 mb 0.00 in0.0 mm 0.00 in0.0 mm 0.00 in0.0 mm
06:55 PM 48.6°F9.2°C 40.4°F4.7°C 73% 1.1 mph W1.8 kmh W 2.2 mph3.5 kmh 30.32 in1026.8 mb 0.00 in0.0 mm 0.00 in0.0 mm 0.00 in0.0 mm
07:00 PM 48.6°F9.2°C 40.7°F4.8°C 74% 1.2 mph SSW1.9 kmh SSW 3.1 mph5.0 kmh 30.32 in1026.8 mb 0.00 in0.0 mm 0.00 in0.0 mm 0.00 in0.0 mm
07:05 PM 48.6°F9.2°C 40.7°F4.8°C 74% 0.7 mph 1.1 kmh 1.6 mph2.6 kmh 30.32 in1026.8 mb 0.00 in0.0 mm 0.00 in0.0 mm 0.00 in0.0 mm
07:10 PM 48.5°F9.2°C 40.6°F4.8°C 74% 0.9 mph N1.4 kmh N 2.2 mph3.5 kmh 30.32 in1026.8 mb 0.00 in0.0 mm 0.00 in0.0 mm 0.00 in0.0 mm
07:15 PM 48.4°F9.1°C 40.5°F4.7°C 74% 0.3 mph NW0.5 kmh NW 1.6 mph2.6 kmh 30.31 in1026.4 mb 0.00 in0.0 mm 0.00 in0.0 mm 0.00 in0.0 mm
07:20 PM 48.4°F9.1°C 40.5°F4.7°C 74% 0.2 mph NNE0.3 kmh NNE 1.6 mph2.6 kmh 30.32 in1026.8 mb 0.00 in0.0 mm 0.00 in0.0 mm 0.00 in0.0 mm
07:25 PM 48.4°F9.1°C 40.6°F4.8°C 74% 1.1 mph 1.8 kmh 2.2 mph3.5 kmh 30.32 in1026.8 mb 0.00 in0.0 mm 0.00 in0.0 mm 0.00 in0.0 mm
07:30 PM 48.3°F9.1°C 40.7°F4.8°C 75% 0.9 mph N1.4 kmh N 2.2 mph3.5 kmh 30.32 in1026.8 mb 0.00 in0.0 mm 0.00 in0.0 mm 0.00 in0.0 mm
07:35 PM 48.2°F9.0°C 41.0°F5.0°C 76% 0.3 mph NW0.5 kmh NW 1.6 mph2.6 kmh 30.32 in1026.8 mb 0.00 in0.0 mm 0.00 in0.0 mm 0.00 in0.0 mm
07:40 PM 48.2°F9.0°C 41.0°F5.0°C 76% Calm Calm 0.7 mph1.1 kmh 30.32 in1026.8 mb 0.00 in0.0 mm 0.00 in0.0 mm 0.00 in0.0 mm
07:45 PM 48.1°F8.9°C 40.9°F4.9°C 76% Calm Calm -- 30.32 in1026.8 mb 0.00 in0.0 mm 0.00 in0.0 mm 0.00 in0.0 mm
07:50 PM 48.0°F8.9°C 40.8°F4.9°C 76% 1.6 mph N2.6 kmh N 3.1 mph5.0 kmh 30.32 in1026.8 mb 0.00 in0.0 mm 0.00 in0.0 mm 0.00 in0.0 mm
07:55 PM 47.8°F8.8°C 41.0°F5.0°C 77% 1.4 mph NNW2.3 kmh NNW 3.1 mph5.0 kmh 30.33 in1027.1 mb 0.00 in0.0 mm 0.00 in0.0 mm 0.00 in0.0 mm
08:00 PM 47.7°F8.7°C 41.0°F5.0°C 78% 1.4 mph N2.3 kmh N 3.1 mph5.0 kmh 30.33 in1027.1 mb 0.00 in0.0 mm 0.00 in0.0 mm 0.00 in0.0 mm
08:05 PM 47.6°F8.7°C 41.1°F5.1°C 78% 1.9 mph NNE3.1 kmh NNE 3.1 mph5.0 kmh 30.33 in1027.1 mb 0.00 in0.0 mm 0.00 in0.0 mm 0.00 in0.0 mm
08:10 PM 47.5°F8.6°C 41.3°F5.2°C 79% 1.9 mph N3.1 kmh N 3.8 mph6.1 kmh 30.33 in1027.1 mb 0.00 in0.0 mm 0.00 in0.0 mm 0.00 in0.0 mm
08:15 PM 47.3°F8.5°C 41.1°F5.1°C 79% 0.7 mph S1.1 kmh S 2.2 mph3.5 kmh 30.33 in1027.1 mb 0.00 in0.0 mm 0.00 in0.0 mm 0.00 in0.0 mm
08:20 PM 47.3°F8.5°C 41.2°F5.1°C 79% Calm Calm 0.7 mph1.1 kmh 30.33 in1027.1 mb 0.00 in0.0 mm 0.00 in0.0 mm 0.00 in0.0 mm
08:25 PM 47.2°F8.4°C 41.3°F5.2°C 80% 0.4 mph NE0.6 kmh NE 1.6 mph2.6 kmh 30.33 in1027.1 mb 0.00 in0.0 mm 0.00 in0.0 mm 0.00 in0.0 mm
08:30 PM 47.1°F8.4°C 41.3°F5.2°C 80% Calm Calm 0.7 mph1.1 kmh 30.34 in1027.4 mb 0.00 in0.0 mm 0.00 in0.0 mm 0.00 in0.0 mm
08:35 PM 47.0°F8.3°C 41.3°F5.2°C 80% Calm Calm 0.7 mph1.1 kmh 30.34 in1027.4 mb 0.00 in0.0 mm 0.00 in0.0 mm 0.00 in0.0 mm
08:40 PM 46.9°F8.3°C 41.4°F5.2°C 81% 0.7 mph NE1.1 kmh NE 2.2 mph3.5 kmh 30.33 in1027.1 mb 0.00 in0.0 mm 0.00 in0.0 mm 0.00 in0.0 mm
08:45 PM 46.9°F8.3°C 41.4°F5.2°C 81% 1.6 mph NE2.6 kmh NE 2.2 mph3.5 kmh 30.33 in1027.1 mb 0.00 in0.0 mm 0.00 in0.0 mm 0.00 in0.0 mm
08:50 PM 46.8°F8.2°C 41.5°F5.3°C 82% 1.3 mph NNE2.1 kmh NNE 2.2 mph3.5 kmh 30.33 in1027.1 mb 0.00 in0.0 mm 0.00 in0.0 mm 0.00 in0.0 mm
08:55 PM 46.8°F8.2°C 41.6°F5.3°C 82% 1.9 mph N3.1 kmh N 3.1 mph5.0 kmh 30.33 in1027.1 mb 0.00 in0.0 mm 0.00 in0.0 mm 0.00 in0.0 mm
09:00 PM 46.8°F8.2°C 41.6°F5.3°C 82% 1.9 mph N3.1 kmh N 3.1 mph5.0 kmh 30.33 in1027.1 mb 0.00 in0.0 mm 0.00 in0.0 mm 0.00 in0.0 mm
09:05 PM 46.8°F8.2°C 41.9°F5.5°C 83% 1.6 mph 2.6 kmh 1.6 mph2.6 kmh 30.33 in1027.1 mb 0.00 in0.0 mm 0.00 in0.0 mm 0.00 in0.0 mm
09:10 PM 46.8°F8.2°C 42.0°F5.6°C 83% 0.9 mph N1.4 kmh N 1.6 mph2.6 kmh 30.33 in1027.1 mb 0.00 in0.0 mm 0.00 in0.0 mm 0.00 in0.0 mm
09:15 PM 46.8°F8.2°C 41.9°F5.5°C 83% 0.1 mph S0.2 kmh S 0.7 mph1.1 kmh 30.34 in1027.4 mb 0.00 in0.0 mm 0.00 in0.0 mm 0.00 in0.0 mm
09:20 PM 46.8°F8.2°C 41.9°F5.5°C 83% 0.3 mph NE0.5 kmh NE 1.6 mph2.6 kmh 30.33 in1027.1 mb 0.00 in0.0 mm 0.00 in0.0 mm 0.00 in0.0 mm
09:25 PM 46.8°F8.2°C 41.9°F5.5°C 83% 1.6 mph NE2.6 kmh NE 2.2 mph3.5 kmh 30.33 in1027.1 mb 0.00 in0.0 mm 0.00 in0.0 mm 0.00 in0.0 mm
09:30 PM 46.6°F8.1°C 41.7°F5.4°C 83% 0.1 mph 0.2 kmh 1.6 mph2.6 kmh 30.34 in1027.4 mb 0.00 in0.0 mm 0.00 in0.0 mm 0.00 in0.0 mm
09:35 PM 46.5°F8.1°C 41.6°F5.3°C 83% 0.3 mph NW0.5 kmh NW 1.6 mph2.6 kmh 30.34 in1027.4 mb 0.00 in0.0 mm 0.00 in0.0 mm 0.00 in0.0 mm
09:40 PM 46.4°F8.0°C 41.4°F5.2°C 83% Calm Calm -- 30.34 in1027.4 mb 0.00 in0.0 mm 0.00 in0.0 mm 0.00 in0.0 mm
09:45 PM 46.2°F7.9°C 41.0°F5.0°C 82% 0.2 mph NE0.3 kmh NE 1.6 mph2.6 kmh 30.34 in1027.4 mb 0.00 in0.0 mm 0.00 in0.0 mm 0.00 in0.0 mm
09:50 PM 46.0°F7.8°C 40.8°F4.9°C 82% 1.9 mph NE3.1 kmh NE 3.1 mph5.0 kmh 30.34 in1027.4 mb 0.00 in0.0 mm 0.00 in0.0 mm 0.00 in0.0 mm
09:55 PM 45.8°F7.7°C 41.5°F5.3°C 85% 1.9 mph N3.1 kmh N 3.1 mph5.0 kmh 30.34 in1027.4 mb 0.00 in0.0 mm 0.00 in0.0 mm 0.00 in0.0 mm
10:00 PM 45.7°F7.6°C 42.3°F5.7°C 88% 0.5 mph N0.8 kmh N 2.2 mph3.5 kmh 30.34 in1027.4 mb 0.00 in0.0 mm 0.00 in0.0 mm 0.00 in0.0 mm
10:05 PM 45.5°F7.5°C 42.1°F5.6°C 88% 0.9 mph NNE1.4 kmh NNE 2.2 mph3.5 kmh 30.34 in1027.4 mb 0.00 in0.0 mm 0.00 in0.0 mm 0.00 in0.0 mm
10:10 PM 45.3°F7.4°C 42.0°F5.6°C 88% 0.7 mph N1.1 kmh N 1.6 mph2.6 kmh 30.34 in1027.4 mb 0.00 in0.0 mm 0.00 in0.0 mm 0.00 in0.0 mm
10:15 PM 45.1°F7.3°C 41.8°F5.4°C 88% 1.5 mph NE2.4 kmh NE 3.1 mph5.0 kmh 30.34 in1027.4 mb 0.00 in0.0 mm 0.00 in0.0 mm 0.00 in0.0 mm
10:20 PM 44.9°F7.2°C 41.5°F5.3°C 88% 2.5 mph NNE4.0 kmh NNE 3.8 mph6.1 kmh 30.34 in1027.4 mb 0.00 in0.0 mm 0.00 in0.0 mm 0.00 in0.0 mm
10:25 PM 44.6°F7.0°C 41.3°F5.2°C 88% 2.1 mph NE3.4 kmh NE 3.8 mph6.1 kmh 30.34 in1027.4 mb 0.00 in0.0 mm 0.00 in0.0 mm 0.00 in0.0 mm
10:30 PM 44.4°F6.9°C 41.3°F5.2°C 89% 3.3 mph NE5.3 kmh NE 4.5 mph7.2 kmh 30.34 in1027.4 mb 0.00 in0.0 mm 0.00 in0.0 mm 0.00 in0.0 mm
10:35 PM 44.2°F6.8°C 41.1°F5.1°C 89% 2.5 mph NE4.0 kmh NE 3.8 mph6.1 kmh 30.34 in1027.4 mb 0.00 in0.0 mm 0.00 in0.0 mm 0.00 in0.0 mm
10:40 PM 43.9°F6.6°C 40.9°F4.9°C 89% 2.1 mph ENE3.4 kmh ENE 3.1 mph5.0 kmh 30.34 in1027.4 mb 0.00 in0.0 mm 0.00 in0.0 mm 0.00 in0.0 mm
10:45 PM 43.6°F6.4°C 40.6°F4.8°C 89% 2.2 mph NE3.5 kmh NE 3.1 mph5.0 kmh 30.34 in1027.4 mb 0.00 in0.0 mm 0.00 in0.0 mm 0.00 in0.0 mm
10:50 PM 43.3°F6.3°C 40.3°F4.6°C 89% 2.0 mph NE3.2 kmh NE 3.1 mph5.0 kmh 30.34 in1027.4 mb 0.00 in0.0 mm 0.00 in0.0 mm 0.00 in0.0 mm
10:55 PM 43.1°F6.2°C 40.1°F4.5°C 89% 2.2 mph ENE3.5 kmh ENE 3.1 mph5.0 kmh 30.34 in1027.4 mb 0.00 in0.0 mm 0.00 in0.0 mm 0.00 in0.0 mm
11:00 PM 42.9°F6.1°C 39.9°F4.4°C 89% 1.6 mph E2.6 kmh E 2.2 mph3.5 kmh 30.34 in1027.4 mb 0.00 in0.0 mm 0.00 in0.0 mm 0.00 in0.0 mm
11:05 PM 42.8°F6.0°C 39.8°F4.3°C 89% 2.2 mph ENE3.5 kmh ENE 3.1 mph5.0 kmh 30.34 in1027.4 mb 0.00 in0.0 mm 0.00 in0.0 mm 0.00 in0.0 mm
11:10 PM 42.6°F5.9°C 39.8°F4.3°C 89% 1.3 mph ENE2.1 kmh ENE 3.1 mph5.0 kmh 30.35 in1027.8 mb 0.00 in0.0 mm 0.00 in0.0 mm 0.00 in0.0 mm
11:15 PM 42.4°F5.8°C 39.7°F4.3°C 90% Calm Calm 0.7 mph1.1 kmh 30.35 in1027.8 mb 0.00 in0.0 mm 0.00 in0.0 mm 0.00 in0.0 mm
11:20 PM 42.4°F5.8°C 39.7°F4.3°C 90% 1.2 mph NE1.9 kmh NE 3.1 mph5.0 kmh 30.35 in1027.8 mb 0.00 in0.0 mm 0.00 in0.0 mm 0.00 in0.0 mm
11:25 PM 42.3°F5.7°C 39.5°F4.2°C 90% 2.0 mph NE3.2 kmh NE 3.1 mph5.0 kmh 30.35 in1027.8 mb 0.00 in0.0 mm 0.00 in0.0 mm 0.00 in0.0 mm
11:30 PM 42.3°F5.7°C 39.5°F4.2°C 90% 2.5 mph NE4.0 kmh NE 3.8 mph6.1 kmh 30.35 in1027.8 mb 0.00 in0.0 mm 0.00 in0.0 mm 0.00 in0.0 mm
11:35 PM 42.3°F5.7°C 39.7°F4.3°C 90% 3.2 mph NE5.1 kmh NE 4.5 mph7.2 kmh 30.35 in1027.8 mb 0.00 in0.0 mm 0.00 in0.0 mm 0.00 in0.0 mm
11:40 PM 42.3°F5.7°C 39.8°F4.3°C 91% 2.2 mph NE3.5 kmh NE 3.8 mph6.1 kmh 30.35 in1027.8 mb 0.00 in0.0 mm 0.00 in0.0 mm 0.00 in0.0 mm
11:45 PM 42.2°F5.7°C 39.8°F4.3°C 91% Calm Calm 0.7 mph1.1 kmh 30.35 in1027.8 mb 0.00 in0.0 mm 0.00 in0.0 mm 0.00 in0.0 mm
11:50 PM 42.1°F5.6°C 39.6°F4.2°C 91% 0.4 mph NE0.6 kmh NE 2.2 mph3.5 kmh 30.35 in1027.8 mb 0.00 in0.0 mm 0.00 in0.0 mm 0.00 in0.0 mm
11:55 PM 42.0°F5.6°C 39.6°F4.2°C 91% 1.9 mph NE3.1 kmh NE 3.1 mph5.0 kmh 30.35 in1027.8 mb 0.00 in0.0 mm 0.00 in0.0 mm 0.00 in0.0 mm